WMKM

Details ICAO WMKM (MKZ)
Name Malacca
Region Malaysia (Peninsular Malaysia)
Timezone Asia/Kuala_Lumpur (UTC+8.0)
Plans Departing 21
Arriving 17
Stats Elevation 35 ft / 11 m (AMSL)
Location 2.263362° 102.251553°
Runways 1
Magnetic Variation 0.063° E
Sunrise 2017-12-17 23:09:06 UTC / 2017-12-18 07:09:06 Local
Sunset 2017-12-18 11:08:32 UTC / 2017-12-18 19:08:32 Local
Advertisement - Login to hide

Runways

ID Width Length Bearing (true) Bearing (mag) Surface Threshold Offset Overrun Length
03 121 ft / 37 m 4,523 ft / 1,379 m 29.93° 29.87° Asphalt 0 ft / 0 m 200 ft / 61 m
21 121 ft / 37 m 4,523 ft / 1,379 m 209.93° 209.87° Asphalt 0 ft / 0 m 200 ft / 61 m

Map

Weather


0- 5 10 15 20 25 30 35+ Temperature / ° C

Clouds and Precipitation
Forecast for 2017-12-18 18:00 UTC. Updated 2 hours ago

Ground ~20,000 ft ~40,000 ft Winds

METAR

WMKM 181500Z 04009KT 350V080 9999 FEW028 SCT150 BKN280 25/22 Q1014

TAF

Not found

Frequencies

Ground 121.60 MHz GND
Tower 118.00 MHz TWR
Warning: Do not use this data for real-world aviation or navigation. No guarantee of current accuracy is given.